sensor_id;sensor_type;location;lat;lon;timestamp;temperature;humidity
21115;DHT22;10715;48.546;9.896;2022-11-20T00:01:19;3.40;99.90
21115;DHT22;10715;48.546;9.896;2022-11-20T00:03:45;3.40;99.90
21115;DHT22;10715;48.546;9.896;2022-11-20T00:06:14;3.40;99.90
21115;DHT22;10715;48.546;9.896;2022-11-20T00:08:40;3.30;99.90
21115;DHT22;10715;48.546;9.896;2022-11-20T00:11:11;3.30;99.90
21115;DHT22;10715;48.546;9.896;2022-11-20T00:13:37;3.30;99.90
21115;DHT22;10715;48.546;9.896;2022-11-20T00:16:05;3.20;99.90
21115;DHT22;10715;48.546;9.896;2022-11-20T00:18:33;3.10;99.90
21115;DHT22;10715;48.546;9.896;2022-11-20T00:21:06;3.00;99.90
21115;DHT22;10715;48.546;9.896;2022-11-20T00:23:33;2.90;99.90
21115;DHT22;10715;48.546;9.896;2022-11-20T00:26:03;2.80;99.90
21115;DHT22;10715;48.546;9.896;2022-11-20T00:28:29;2.60;99.90
21115;DHT22;10715;48.546;9.896;2022-11-20T00:31:10;2.60;99.90
21115;DHT22;10715;48.546;9.896;2022-11-20T00:33:35;2.50;99.90
21115;DHT22;10715;48.546;9.896;2022-11-20T00:36:07;2.40;99.90
21115;DHT22;10715;48.546;9.896;2022-11-20T00:38:33;2.30;99.90
21115;DHT22;10715;48.546;9.896;2022-11-20T00:41:00;2.20;99.90
21115;DHT22;10715;48.546;9.896;2022-11-20T00:43:26;2.20;99.90
21115;DHT22;10715;48.546;9.896;2022-11-20T00:46:04;2.10;99.90
21115;DHT22;10715;48.546;9.896;2022-11-20T00:48:30;2.00;99.90
21115;DHT22;10715;48.546;9.896;2022-11-20T00:50:56;1.90;99.90
21115;DHT22;10715;48.546;9.896;2022-11-20T00:53:22;1.90;99.90
21115;DHT22;10715;48.546;9.896;2022-11-20T00:55:56;1.90;99.90
21115;DHT22;10715;48.546;9.896;2022-11-20T00:58:23;1.80;99.90
21115;DHT22;10715;48.546;9.896;2022-11-20T01:00:49;1.80;99.90
21115;DHT22;10715;48.546;9.896;2022-11-20T01:03:17;1.70;99.90
21115;DHT22;10715;48.546;9.896;2022-11-20T01:05:43;1.60;99.90
21115;DHT22;10715;48.546;9.896;2022-11-20T01:08:09;1.60;99.90
21115;DHT22;10715;48.546;9.896;2022-11-20T01:10:34;1.60;99.90
21115;DHT22;10715;48.546;9.896;2022-11-20T01:13:00;1.60;99.90
21115;DHT22;10715;48.546;9.896;2022-11-20T01:15:44;1.60;99.90
21115;DHT22;10715;48.546;9.896;2022-11-20T01:18:10;1.60;99.90
21115;DHT22;10715;48.546;9.896;2022-11-20T01:20:36;1.50;99.90
21115;DHT22;10715;48.546;9.896;2022-11-20T01:23:03;1.40;99.90
21115;DHT22;10715;48.546;9.896;2022-11-20T01:25:29;1.40;99.90
21115;DHT22;10715;48.546;9.896;2022-11-20T01:27:55;1.30;99.90
21115;DHT22;10715;48.546;9.896;2022-11-20T01:30:20;1.20;99.90
21115;DHT22;10715;48.546;9.896;2022-11-20T01:32:46;1.20;99.90
21115;DHT22;10715;48.546;9.896;2022-11-20T01:35:12;1.10;99.90
21115;DHT22;10715;48.546;9.896;2022-11-20T01:37:37;1.10;99.90
21115;DHT22;10715;48.546;9.896;2022-11-20T01:40:03;1.00;99.90
21115;DHT22;10715;48.546;9.896;2022-11-20T01:42:29;1.00;99.90
21115;DHT22;10715;48.546;9.896;2022-11-20T01:48:18;0.90;99.90
21115;DHT22;10715;48.546;9.896;2022-11-20T01:50:45;0.80;99.90
21115;DHT22;10715;48.546;9.896;2022-11-20T01:53:15;0.80;99.90
21115;DHT22;10715;48.546;9.896;2022-11-20T01:55:47;0.70;99.90
21115;DHT22;10715;48.546;9.896;2022-11-20T01:58:13;0.70;99.90
21115;DHT22;10715;48.546;9.896;2022-11-20T02:00:40;0.70;99.90
21115;DHT22;10715;48.546;9.896;2022-11-20T02:03:11;0.60;99.90
21115;DHT22;10715;48.546;9.896;2022-11-20T02:06:08;0.60;99.90
21115;DHT22;10715;48.546;9.896;2022-11-20T02:08:36;0.50;99.90
21115;DHT22;10715;48.546;9.896;2022-11-20T02:11:02;0.50;99.90
21115;DHT22;10715;48.546;9.896;2022-11-20T02:13:28;0.50;99.90
21115;DHT22;10715;48.546;9.896;2022-11-20T02:16:36;0.50;99.90
21115;DHT22;10715;48.546;9.896;2022-11-20T02:19:07;0.50;99.90
21115;DHT22;10715;48.546;9.896;2022-11-20T02:24:06;0.40;99.90
21115;DHT22;10715;48.546;9.896;2022-11-20T02:26:44;0.40;99.90
21115;DHT22;10715;48.546;9.896;2022-11-20T02:29:11;0.40;99.90
21115;DHT22;10715;48.546;9.896;2022-11-20T02:31:40;0.40;99.90
21115;DHT22;10715;48.546;9.896;2022-11-20T02:34:06;0.40;99.90
21115;DHT22;10715;48.546;9.896;2022-11-20T02:36:33;0.40;99.90
21115;DHT22;10715;48.546;9.896;2022-11-20T02:39:01;0.40;99.90
21115;DHT22;10715;48.546;9.896;2022-11-20T02:41:37;0.40;99.90
21115;DHT22;10715;48.546;9.896;2022-11-20T02:44:04;0.30;99.90
21115;DHT22;10715;48.546;9.896;2022-11-20T02:46:31;0.30;99.90
21115;DHT22;10715;48.546;9.896;2022-11-20T02:48:58;0.30;99.90
21115;DHT22;10715;48.546;9.896;2022-11-20T02:51:24;0.20;99.90
21115;DHT22;10715;48.546;9.896;2022-11-20T02:53:50;0.10;99.90
21115;DHT22;10715;48.546;9.896;2022-11-20T02:56:16;0.10;99.90
21115;DHT22;10715;48.546;9.896;2022-11-20T02:58:41;0.10;99.90
21115;DHT22;10715;48.546;9.896;2022-11-20T03:01:07;0.00;99.90
21115;DHT22;10715;48.546;9.896;2022-11-20T03:03:33;0.00;99.90
21115;DHT22;10715;48.546;9.896;2022-11-20T03:05:59;-0.10;99.90
21115;DHT22;10715;48.546;9.896;2022-11-20T03:08:25;-0.10;99.90
21115;DHT22;10715;48.546;9.896;2022-11-20T03:10:51;-0.10;99.90
21115;DHT22;10715;48.546;9.896;2022-11-20T03:13:17;-0.10;99.90
21115;DHT22;10715;48.546;9.896;2022-11-20T03:15:43;-0.20;99.90
21115;DHT22;10715;48.546;9.896;2022-11-20T03:18:08;-0.30;99.90
21115;DHT22;10715;48.546;9.896;2022-11-20T03:20:34;-0.40;99.90
21115;DHT22;10715;48.546;9.896;2022-11-20T03:23:00;-0.40;99.90
21115;DHT22;10715;48.546;9.896;2022-11-20T03:25:26;-0.60;99.90
21115;DHT22;10715;48.546;9.896;2022-11-20T03:27:53;-0.60;99.90
21115;DHT22;10715;48.546;9.896;2022-11-20T03:30:19;-0.70;99.90
21115;DHT22;10715;48.546;9.896;2022-11-20T03:32:45;-0.80;99.90
21115;DHT22;10715;48.546;9.896;2022-11-20T03:35:11;-0.80;99.90
21115;DHT22;10715;48.546;9.896;2022-11-20T03:37:36;-0.90;99.90
21115;DHT22;10715;48.546;9.896;2022-11-20T03:40:03;-0.90;99.90
21115;DHT22;10715;48.546;9.896;2022-11-20T03:42:28;-0.90;99.90
21115;DHT22;10715;48.546;9.896;2022-11-20T03:45:14;-0.90;99.90
21115;DHT22;10715;48.546;9.896;2022-11-20T03:47:40;-1.00;99.90
21115;DHT22;10715;48.546;9.896;2022-11-20T03:50:07;-1.00;99.90
21115;DHT22;10715;48.546;9.896;2022-11-20T03:52:33;-1.00;99.90
21115;DHT22;10715;48.546;9.896;2022-11-20T03:54:59;-1.10;99.90
21115;DHT22;10715;48.546;9.896;2022-11-20T03:57:24;-1.10;99.90
21115;DHT22;10715;48.546;9.896;2022-11-20T03:59:50;-1.10;99.90
21115;DHT22;10715;48.546;9.896;2022-11-20T04:02:16;-1.10;99.90
21115;DHT22;10715;48.546;9.896;2022-11-20T04:04:41;-1.10;99.90
21115;DHT22;10715;48.546;9.896;2022-11-20T04:07:07;-1.10;99.90
21115;DHT22;10715;48.546;9.896;2022-11-20T04:09:33;-1.00;99.90
21115;DHT22;10715;48.546;9.896;2022-11-20T04:11:59;-1.00;99.90
21115;DHT22;10715;48.546;9.896;2022-11-20T04:14:24;-1.10;99.90
21115;DHT22;10715;48.546;9.896;2022-11-20T04:16:50;-1.10;99.90
21115;DHT22;10715;48.546;9.896;2022-11-20T04:19:16;-1.10;99.90
21115;DHT22;10715;48.546;9.896;2022-11-20T04:21:43;-1.10;99.90
21115;DHT22;10715;48.546;9.896;2022-11-20T04:24:09;-1.00;99.90
21115;DHT22;10715;48.546;9.896;2022-11-20T04:26:37;-0.90;99.90
21115;DHT22;10715;48.546;9.896;2022-11-20T04:29:02;-0.80;99.90
21115;DHT22;10715;48.546;9.896;2022-11-20T04:31:31;-0.70;99.90
21115;DHT22;10715;48.546;9.896;2022-11-20T04:34:01;-0.60;99.90
21115;DHT22;10715;48.546;9.896;2022-11-20T04:36:28;-0.60;99.90
21115;DHT22;10715;48.546;9.896;2022-11-20T04:38:56;-0.60;99.90
21115;DHT22;10715;48.546;9.896;2022-11-20T04:41:23;-0.50;99.90
21115;DHT22;10715;48.546;9.896;2022-11-20T04:43:51;-0.40;99.90
21115;DHT22;10715;48.546;9.896;2022-11-20T04:46:18;-0.30;99.90
21115;DHT22;10715;48.546;9.896;2022-11-20T04:48:45;-0.30;99.90
21115;DHT22;10715;48.546;9.896;2022-11-20T04:51:11;-0.30;99.90
21115;DHT22;10715;48.546;9.896;2022-11-20T04:53:38;-0.30;99.90
21115;DHT22;10715;48.546;9.896;2022-11-20T04:56:06;-0.30;99.90
21115;DHT22;10715;48.546;9.896;2022-11-20T04:58:33;-0.40;99.90
21115;DHT22;10715;48.546;9.896;2022-11-20T05:01:02;-0.50;99.90
21115;DHT22;10715;48.546;9.896;2022-11-20T05:03:29;-0.50;99.90
21115;DHT22;10715;48.546;9.896;2022-11-20T05:05:54;-0.50;99.90
21115;DHT22;10715;48.546;9.896;2022-11-20T05:08:20;-0.50;99.90
21115;DHT22;10715;48.546;9.896;2022-11-20T05:10:46;-0.50;99.90
21115;DHT22;10715;48.546;9.896;2022-11-20T05:13:12;-0.50;99.90
21115;DHT22;10715;48.546;9.896;2022-11-20T05:15:37;-0.40;99.90
21115;DHT22;10715;48.546;9.896;2022-11-20T05:18:03;-0.40;99.90
21115;DHT22;10715;48.546;9.896;2022-11-20T05:20:29;-0.40;99.90
21115;DHT22;10715;48.546;9.896;2022-11-20T05:22:58;-0.40;99.90
21115;DHT22;10715;48.546;9.896;2022-11-20T05:25:24;-0.40;99.90
21115;DHT22;10715;48.546;9.896;2022-11-20T05:27:49;-0.40;99.90
21115;DHT22;10715;48.546;9.896;2022-11-20T05:30:15;-0.40;99.90
21115;DHT22;10715;48.546;9.896;2022-11-20T05:32:41;-0.40;99.90
21115;DHT22;10715;48.546;9.896;2022-11-20T05:35:07;-0.40;99.90
21115;DHT22;10715;48.546;9.896;2022-11-20T05:37:32;-0.40;99.90
21115;DHT22;10715;48.546;9.896;2022-11-20T05:39:58;-0.50;99.90
21115;DHT22;10715;48.546;9.896;2022-11-20T05:42:25;-0.50;99.90
21115;DHT22;10715;48.546;9.896;2022-11-20T05:45:02;-0.60;99.90
21115;DHT22;10715;48.546;9.896;2022-11-20T05:47:32;-0.60;99.90
21115;DHT22;10715;48.546;9.896;2022-11-20T05:49:58;-0.60;99.90
21115;DHT22;10715;48.546;9.896;2022-11-20T05:52:24;-0.50;99.90
21115;DHT22;10715;48.546;9.896;2022-11-20T05:54:49;-0.40;99.90
21115;DHT22;10715;48.546;9.896;2022-11-20T05:57:16;-0.40;99.90
21115;DHT22;10715;48.546;9.896;2022-11-20T05:59:42;-0.30;99.90
21115;DHT22;10715;48.546;9.896;2022-11-20T06:02:08;-0.20;99.90
21115;DHT22;10715;48.546;9.896;2022-11-20T06:04:33;-0.20;99.90
21115;DHT22;10715;48.546;9.896;2022-11-20T06:06:59;-0.10;99.90
21115;DHT22;10715;48.546;9.896;2022-11-20T06:09:25;-0.10;99.90
21115;DHT22;10715;48.546;9.896;2022-11-20T06:11:50;0.00;99.90
21115;DHT22;10715;48.546;9.896;2022-11-20T06:14:16;0.00;99.90
21115;DHT22;10715;48.546;9.896;2022-11-20T06:16:42;0.10;99.90
21115;DHT22;10715;48.546;9.896;2022-11-20T06:19:07;0.10;99.90
21115;DHT22;10715;48.546;9.896;2022-11-20T06:21:33;0.20;99.90
21115;DHT22;10715;48.546;9.896;2022-11-20T06:23:59;0.30;99.90
21115;DHT22;10715;48.546;9.896;2022-11-20T06:26:26;0.30;99.90
21115;DHT22;10715;48.546;9.896;2022-11-20T06:28:53;0.30;99.90
21115;DHT22;10715;48.546;9.896;2022-11-20T06:31:21;0.40;99.90
21115;DHT22;10715;48.546;9.896;2022-11-20T06:33:48;0.50;99.90
21115;DHT22;10715;48.546;9.896;2022-11-20T06:36:15;0.50;99.90
21115;DHT22;10715;48.546;9.896;2022-11-20T06:38:41;0.50;99.90
21115;DHT22;10715;48.546;9.896;2022-11-20T06:41:11;0.60;99.90
21115;DHT22;10715;48.546;9.896;2022-11-20T06:43:38;0.60;99.90
21115;DHT22;10715;48.546;9.896;2022-11-20T06:46:03;0.70;99.90
21115;DHT22;10715;48.546;9.896;2022-11-20T06:48:29;0.80;99.90
21115;DHT22;10715;48.546;9.896;2022-11-20T06:50:56;0.80;99.90
21115;DHT22;10715;48.546;9.896;2022-11-20T06:53:22;0.80;99.90
21115;DHT22;10715;48.546;9.896;2022-11-20T06:55:49;0.90;99.90
21115;DHT22;10715;48.546;9.896;2022-11-20T06:58:16;0.90;99.90
21115;DHT22;10715;48.546;9.896;2022-11-20T07:00:42;1.00;99.90
21115;DHT22;10715;48.546;9.896;2022-11-20T07:03:09;1.10;99.90
21115;DHT22;10715;48.546;9.896;2022-11-20T07:05:35;1.10;99.90
21115;DHT22;10715;48.546;9.896;2022-11-20T07:08:02;1.20;99.90
21115;DHT22;10715;48.546;9.896;2022-11-20T07:10:28;1.30;99.90
21115;DHT22;10715;48.546;9.896;2022-11-20T07:12:54;1.40;99.90
21115;DHT22;10715;48.546;9.896;2022-11-20T07:15:21;1.50;99.90
21115;DHT22;10715;48.546;9.896;2022-11-20T07:17:47;1.60;99.90
21115;DHT22;10715;48.546;9.896;2022-11-20T07:20:14;1.60;99.90
21115;DHT22;10715;48.546;9.896;2022-11-20T07:22:40;1.70;99.90
21115;DHT22;10715;48.546;9.896;2022-11-20T07:25:07;1.70;99.90
21115;DHT22;10715;48.546;9.896;2022-11-20T07:27:33;1.80;99.90
21115;DHT22;10715;48.546;9.896;2022-11-20T07:29:58;1.90;99.90
21115;DHT22;10715;48.546;9.896;2022-11-20T07:32:24;1.90;99.90
21115;DHT22;10715;48.546;9.896;2022-11-20T07:34:50;1.90;99.90
21115;DHT22;10715;48.546;9.896;2022-11-20T07:37:16;2.00;99.90
21115;DHT22;10715;48.546;9.896;2022-11-20T07:39:42;2.00;99.90
21115;DHT22;10715;48.546;9.896;2022-11-20T07:42:08;2.10;99.90
21115;DHT22;10715;48.546;9.896;2022-11-20T07:44:34;2.10;99.90
21115;DHT22;10715;48.546;9.896;2022-11-20T07:47:00;2.20;99.90
21115;DHT22;10715;48.546;9.896;2022-11-20T07:49:26;2.20;99.90
21115;DHT22;10715;48.546;9.896;2022-11-20T07:51:51;2.20;99.90
21115;DHT22;10715;48.546;9.896;2022-11-20T07:54:19;2.30;99.90
21115;DHT22;10715;48.546;9.896;2022-11-20T07:56:46;2.30;99.90
21115;DHT22;10715;48.546;9.896;2022-11-20T07:59:11;2.40;99.90
21115;DHT22;10715;48.546;9.896;2022-11-20T08:01:40;2.40;99.90
21115;DHT22;10715;48.546;9.896;2022-11-20T08:04:06;2.40;99.90
21115;DHT22;10715;48.546;9.896;2022-11-20T08:06:32;2.50;99.90
21115;DHT22;10715;48.546;9.896;2022-11-20T08:08:58;2.50;99.90
21115;DHT22;10715;48.546;9.896;2022-11-20T08:11:24;2.50;99.90
21115;DHT22;10715;48.546;9.896;2022-11-20T08:14:08;2.50;99.90
21115;DHT22;10715;48.546;9.896;2022-11-20T08:16:37;2.60;99.90
21115;DHT22;10715;48.546;9.896;2022-11-20T08:19:03;2.70;99.90
21115;DHT22;10715;48.546;9.896;2022-11-20T08:21:30;2.70;99.90
21115;DHT22;10715;48.546;9.896;2022-11-20T08:23:57;2.80;99.90
21115;DHT22;10715;48.546;9.896;2022-11-20T08:26:23;2.90;99.90
21115;DHT22;10715;48.546;9.896;2022-11-20T08:28:49;3.00;99.90
21115;DHT22;10715;48.546;9.896;2022-11-20T08:31:15;3.00;99.90
21115;DHT22;10715;48.546;9.896;2022-11-20T08:33:40;3.10;99.90
21115;DHT22;10715;48.546;9.896;2022-11-20T08:36:06;3.10;99.90
21115;DHT22;10715;48.546;9.896;2022-11-20T08:38:32;3.20;99.90
21115;DHT22;10715;48.546;9.896;2022-11-20T08:40:59;3.30;99.90
21115;DHT22;10715;48.546;9.896;2022-11-20T08:43:44;3.50;99.90
21115;DHT22;10715;48.546;9.896;2022-11-20T08:46:09;3.70;99.90
21115;DHT22;10715;48.546;9.896;2022-11-20T08:48:35;3.90;99.90
21115;DHT22;10715;48.546;9.896;2022-11-20T08:51:01;4.00;99.90
21115;DHT22;10715;48.546;9.896;2022-11-20T08:53:27;4.20;99.90
21115;DHT22;10715;48.546;9.896;2022-11-20T08:55:53;4.30;99.90
21115;DHT22;10715;48.546;9.896;2022-11-20T08:58:19;4.30;99.90
21115;DHT22;10715;48.546;9.896;2022-11-20T09:00:45;4.30;99.90
21115;DHT22;10715;48.546;9.896;2022-11-20T09:03:11;4.20;99.90
21115;DHT22;10715;48.546;9.896;2022-11-20T09:05:38;4.30;99.90
21115;DHT22;10715;48.546;9.896;2022-11-20T09:08:04;4.40;99.90
21115;DHT22;10715;48.546;9.896;2022-11-20T09:10:30;4.60;99.90
21115;DHT22;10715;48.546;9.896;2022-11-20T09:12:56;4.70;99.90
21115;DHT22;10715;48.546;9.896;2022-11-20T09:15:22;4.70;99.90
21115;DHT22;10715;48.546;9.896;2022-11-20T09:17:59;4.70;99.90
21115;DHT22;10715;48.546;9.896;2022-11-20T09:20:26;4.70;99.90
21115;DHT22;10715;48.546;9.896;2022-11-20T09:22:52;4.60;99.90
21115;DHT22;10715;48.546;9.896;2022-11-20T09:25:18;4.50;99.90
21115;DHT22;10715;48.546;9.896;2022-11-20T09:27:43;4.50;99.90
21115;DHT22;10715;48.546;9.896;2022-11-20T09:30:12;4.50;99.90
21115;DHT22;10715;48.546;9.896;2022-11-20T09:32:42;4.40;99.90
21115;DHT22;10715;48.546;9.896;2022-11-20T09:35:08;4.50;99.90
21115;DHT22;10715;48.546;9.896;2022-11-20T09:37:34;4.50;99.90
21115;DHT22;10715;48.546;9.896;2022-11-20T09:40:00;4.50;99.90
21115;DHT22;10715;48.546;9.896;2022-11-20T09:42:57;4.60;99.90
21115;DHT22;10715;48.546;9.896;2022-11-20T09:54:17;4.40;99.90
21115;DHT22;10715;48.546;9.896;2022-11-20T09:56:53;4.20;99.90
21115;DHT22;10715;48.546;9.896;2022-11-20T09:59:44;4.10;99.90
21115;DHT22;10715;48.546;9.896;2022-11-20T10:11:09;4.30;99.90
21115;DHT22;10715;48.546;9.896;2022-11-20T10:17:03;4.70;99.90
21115;DHT22;10715;48.546;9.896;2022-11-20T10:22:19;5.00;99.90
21115;DHT22;10715;48.546;9.896;2022-11-20T10:30:18;5.20;99.90
21115;DHT22;10715;48.546;9.896;2022-11-20T10:33:03;5.20;99.90
21115;DHT22;10715;48.546;9.896;2022-11-20T10:35:42;5.10;99.90
21115;DHT22;10715;48.546;9.896;2022-11-20T10:38:21;5.10;99.90
21115;DHT22;10715;48.546;9.896;2022-11-20T10:40:57;5.00;99.90
21115;DHT22;10715;48.546;9.896;2022-11-20T10:43:45;5.00;99.90
21115;DHT22;10715;48.546;9.896;2022-11-20T10:46:21;5.00;99.90
21115;DHT22;10715;48.546;9.896;2022-11-20T10:48:48;5.00;99.90
21115;DHT22;10715;48.546;9.896;2022-11-20T10:51:30;5.10;99.90
21115;DHT22;10715;48.546;9.896;2022-11-20T10:59:38;5.10;99.90
21115;DHT22;10715;48.546;9.896;2022-11-20T11:02:21;5.20;99.90
21115;DHT22;10715;48.546;9.896;2022-11-20T11:04:49;5.30;99.90
21115;DHT22;10715;48.546;9.896;2022-11-20T11:07:23;5.30;99.90
21115;DHT22;10715;48.546;9.896;2022-11-20T11:09:54;5.30;99.90
21115;DHT22;10715;48.546;9.896;2022-11-20T11:12:22;5.30;99.90
21115;DHT22;10715;48.546;9.896;2022-11-20T11:14:54;5.30;99.90
21115;DHT22;10715;48.546;9.896;2022-11-20T11:17:21;5.40;99.90
21115;DHT22;10715;48.546;9.896;2022-11-20T11:25:40;5.60;99.90
21115;DHT22;10715;48.546;9.896;2022-11-20T11:30:44;5.60;99.90
21115;DHT22;10715;48.546;9.896;2022-11-20T11:33:32;5.60;99.90
21115;DHT22;10715;48.546;9.896;2022-11-20T11:36:04;5.50;99.90
21115;DHT22;10715;48.546;9.896;2022-11-20T11:38:43;5.40;99.90
21115;DHT22;10715;48.546;9.896;2022-11-20T11:41:16;5.40;99.90
21115;DHT22;10715;48.546;9.896;2022-11-20T11:43:55;5.40;99.90
21115;DHT22;10715;48.546;9.896;2022-11-20T11:46:44;5.40;99.90
21115;DHT22;10715;48.546;9.896;2022-11-20T11:49:18;5.40;99.90
21115;DHT22;10715;48.546;9.896;2022-11-20T11:52:12;5.30;99.90
21115;DHT22;10715;48.546;9.896;2022-11-20T11:55:01;5.30;99.90
21115;DHT22;10715;48.546;9.896;2022-11-20T11:57:46;5.20;99.90
21115;DHT22;10715;48.546;9.896;2022-11-20T12:05:36;5.40;99.90
21115;DHT22;10715;48.546;9.896;2022-11-20T12:11:32;5.50;99.90
21115;DHT22;10715;48.546;9.896;2022-11-20T12:14:04;5.60;99.90
21115;DHT22;10715;48.546;9.896;2022-11-20T12:16:34;5.70;99.90
21115;DHT22;10715;48.546;9.896;2022-11-20T12:19:01;5.80;99.90
21115;DHT22;10715;48.546;9.896;2022-11-20T12:30:17;6.10;99.90
21115;DHT22;10715;48.546;9.896;2022-11-20T12:44:57;6.60;99.90
21115;DHT22;10715;48.546;9.896;2022-11-20T13:02:05;6.60;99.90
21115;DHT22;10715;48.546;9.896;2022-11-20T13:07:27;6.20;99.90
21115;DHT22;10715;48.546;9.896;2022-11-20T13:09:53;6.10;99.90
21115;DHT22;10715;48.546;9.896;2022-11-20T13:13:01;6.00;99.90
21115;DHT22;10715;48.546;9.896;2022-11-20T13:18:11;5.60;99.90
21115;DHT22;10715;48.546;9.896;2022-11-20T13:20:43;5.60;99.90
21115;DHT22;10715;48.546;9.896;2022-11-20T13:23:09;5.60;99.90
21115;DHT22;10715;48.546;9.896;2022-11-20T13:25:38;5.60;99.90
21115;DHT22;10715;48.546;9.896;2022-11-20T13:30:35;5.50;99.90
21115;DHT22;10715;48.546;9.896;2022-11-20T13:33:22;5.60;99.90
21115;DHT22;10715;48.546;9.896;2022-11-20T13:38:25;6.10;99.90
21115;DHT22;10715;48.546;9.896;2022-11-20T13:43:21;6.00;99.90
21115;DHT22;10715;48.546;9.896;2022-11-20T13:48:30;5.60;99.90
21115;DHT22;10715;48.546;9.896;2022-11-20T13:51:29;5.40;99.90
21115;DHT22;10715;48.546;9.896;2022-11-20T14:02:21;4.90;99.90
21115;DHT22;10715;48.546;9.896;2022-11-20T14:04:51;5.00;99.90
21115;DHT22;10715;48.546;9.896;2022-11-20T14:07:19;5.10;99.90
21115;DHT22;10715;48.546;9.896;2022-11-20T14:09:54;5.20;99.90
21115;DHT22;10715;48.546;9.896;2022-11-20T14:12:23;5.40;99.90
21115;DHT22;10715;48.546;9.896;2022-11-20T14:14:52;5.50;99.90
21115;DHT22;10715;48.546;9.896;2022-11-20T14:17:21;5.50;99.90
21115;DHT22;10715;48.546;9.896;2022-11-20T14:19:49;5.60;99.90
21115;DHT22;10715;48.546;9.896;2022-11-20T14:22:21;5.60;99.90
21115;DHT22;10715;48.546;9.896;2022-11-20T14:24:48;5.60;99.90
21115;DHT22;10715;48.546;9.896;2022-11-20T14:27:21;5.50;99.90
21115;DHT22;10715;48.546;9.896;2022-11-20T14:29:49;5.50;99.90
21115;DHT22;10715;48.546;9.896;2022-11-20T14:32:17;5.50;99.90
21115;DHT22;10715;48.546;9.896;2022-11-20T14:34:47;5.40;99.90
21115;DHT22;10715;48.546;9.896;2022-11-20T14:37:20;5.30;99.90
21115;DHT22;10715;48.546;9.896;2022-11-20T14:39:50;5.30;99.90
21115;DHT22;10715;48.546;9.896;2022-11-20T14:42:27;5.20;99.90
21115;DHT22;10715;48.546;9.896;2022-11-20T14:45:00;5.20;99.90
21115;DHT22;10715;48.546;9.896;2022-11-20T14:47:29;5.30;99.90
21115;DHT22;10715;48.546;9.896;2022-11-20T14:49:57;5.30;99.90
21115;DHT22;10715;48.546;9.896;2022-11-20T14:52:25;5.20;99.90
21115;DHT22;10715;48.546;9.896;2022-11-20T14:54:53;5.10;99.90
21115;DHT22;10715;48.546;9.896;2022-11-20T14:59:49;4.80;99.90
21115;DHT22;10715;48.546;9.896;2022-11-20T15:02:16;4.60;99.90
21115;DHT22;10715;48.546;9.896;2022-11-20T15:04:49;4.50;99.90
21115;DHT22;10715;48.546;9.896;2022-11-20T15:07:33;4.30;99.90
21115;DHT22;10715;48.546;9.896;2022-11-20T15:10:26;4.10;99.90
21115;DHT22;10715;48.546;9.896;2022-11-20T15:13:43;4.00;99.90
21115;DHT22;10715;48.546;9.896;2022-11-20T15:15:48;3.90;99.90
21115;DHT22;10715;48.546;9.896;2022-11-20T15:18:18;3.80;99.90
21115;DHT22;10715;48.546;9.896;2022-11-20T15:20:45;3.70;99.90
21115;DHT22;10715;48.546;9.896;2022-11-20T15:23:13;3.60;99.90
21115;DHT22;10715;48.546;9.896;2022-11-20T15:25:40;3.50;99.90
21115;DHT22;10715;48.546;9.896;2022-11-20T15:28:31;3.40;99.90
21115;DHT22;10715;48.546;9.896;2022-11-20T15:30:57;3.30;99.90
21115;DHT22;10715;48.546;9.896;2022-11-20T15:33:23;3.10;99.90
21115;DHT22;10715;48.546;9.896;2022-11-20T15:35:49;3.00;99.90
21115;DHT22;10715;48.546;9.896;2022-11-20T15:38:14;2.80;99.90
21115;DHT22;10715;48.546;9.896;2022-11-20T15:40:40;2.70;99.90
21115;DHT22;10715;48.546;9.896;2022-11-20T15:43:06;2.50;99.90
21115;DHT22;10715;48.546;9.896;2022-11-20T15:45:47;2.40;99.90
21115;DHT22;10715;48.546;9.896;2022-11-20T15:48:27;2.30;99.90
21115;DHT22;10715;48.546;9.896;2022-11-20T15:53:23;2.00;99.90
21115;DHT22;10715;48.546;9.896;2022-11-20T15:55:49;2.00;99.90
21115;DHT22;10715;48.546;9.896;2022-11-20T15:58:15;1.90;99.90
21115;DHT22;10715;48.546;9.896;2022-11-20T16:00:43;1.80;99.90
21115;DHT22;10715;48.546;9.896;2022-11-20T16:03:12;1.80;99.90
21115;DHT22;10715;48.546;9.896;2022-11-20T16:05:38;1.80;99.90
21115;DHT22;10715;48.546;9.896;2022-11-20T16:08:04;1.80;99.90
21115;DHT22;10715;48.546;9.896;2022-11-20T16:10:30;1.80;99.90
21115;DHT22;10715;48.546;9.896;2022-11-20T16:12:56;1.80;99.90
21115;DHT22;10715;48.546;9.896;2022-11-20T16:15:40;1.80;99.90
21115;DHT22;10715;48.546;9.896;2022-11-20T16:18:20;1.80;99.90
21115;DHT22;10715;48.546;9.896;2022-11-20T16:20:50;1.80;99.90
21115;DHT22;10715;48.546;9.896;2022-11-20T16:23:16;1.70;99.90
21115;DHT22;10715;48.546;9.896;2022-11-20T16:25:43;1.70;99.90
21115;DHT22;10715;48.546;9.896;2022-11-20T16:28:10;1.70;99.90
21115;DHT22;10715;48.546;9.896;2022-11-20T16:30:36;1.70;99.90
21115;DHT22;10715;48.546;9.896;2022-11-20T16:33:03;1.70;99.90
21115;DHT22;10715;48.546;9.896;2022-11-20T16:35:32;1.70;99.90
21115;DHT22;10715;48.546;9.896;2022-11-20T16:37:58;1.70;99.90
21115;DHT22;10715;48.546;9.896;2022-11-20T16:40:24;1.60;99.90
21115;DHT22;10715;48.546;9.896;2022-11-20T16:42:51;1.60;99.90
21115;DHT22;10715;48.546;9.896;2022-11-20T16:45:17;1.50;99.90
21115;DHT22;10715;48.546;9.896;2022-11-20T16:47:43;1.40;99.90
21115;DHT22;10715;48.546;9.896;2022-11-20T16:50:09;1.30;99.90
21115;DHT22;10715;48.546;9.896;2022-11-20T16:52:35;1.20;99.90
21115;DHT22;10715;48.546;9.896;2022-11-20T16:55:02;1.00;99.90
21115;DHT22;10715;48.546;9.896;2022-11-20T16:57:29;1.00;99.90
21115;DHT22;10715;48.546;9.896;2022-11-20T16:59:55;0.90;99.90
21115;DHT22;10715;48.546;9.896;2022-11-20T17:02:21;0.90;99.90
21115;DHT22;10715;48.546;9.896;2022-11-20T17:04:49;1.00;99.90
21115;DHT22;10715;48.546;9.896;2022-11-20T17:07:14;1.00;99.90
21115;DHT22;10715;48.546;9.896;2022-11-20T17:09:40;1.00;99.90
21115;DHT22;10715;48.546;9.896;2022-11-20T17:12:06;1.00;99.90
21115;DHT22;10715;48.546;9.896;2022-11-20T17:14:31;1.00;99.90
21115;DHT22;10715;48.546;9.896;2022-11-20T17:16:57;1.00;99.90
21115;DHT22;10715;48.546;9.896;2022-11-20T17:19:23;0.90;99.90
21115;DHT22;10715;48.546;9.896;2022-11-20T17:21:49;0.90;99.90
21115;DHT22;10715;48.546;9.896;2022-11-20T17:24:15;1.00;99.90
21115;DHT22;10715;48.546;9.896;2022-11-20T17:26:42;1.00;99.90
21115;DHT22;10715;48.546;9.896;2022-11-20T17:29:18;1.00;99.90
21115;DHT22;10715;48.546;9.896;2022-11-20T17:31:49;1.10;99.90
21115;DHT22;10715;48.546;9.896;2022-11-20T17:34:15;1.10;99.90
21115;DHT22;10715;48.546;9.896;2022-11-20T17:36:42;1.10;99.90
21115;DHT22;10715;48.546;9.896;2022-11-20T17:39:13;1.20;99.90
21115;DHT22;10715;48.546;9.896;2022-11-20T17:41:38;1.20;99.90
21115;DHT22;10715;48.546;9.896;2022-11-20T17:44:04;1.10;99.90
21115;DHT22;10715;48.546;9.896;2022-11-20T17:46:31;1.10;99.90
21115;DHT22;10715;48.546;9.896;2022-11-20T17:48:58;1.10;99.90
21115;DHT22;10715;48.546;9.896;2022-11-20T17:51:26;1.10;99.90
21115;DHT22;10715;48.546;9.896;2022-11-20T17:54:00;1.10;99.90
21115;DHT22;10715;48.546;9.896;2022-11-20T17:56:30;1.10;99.90